sensor_id;sensor_type;location;lat;lon;timestamp;P1;durP1;ratioP1;P2;durP2;ratioP2
82022;SDS011;71575;49.908;18.356;2023-09-18T00:02:07;10.10;;;6.00;;
82022;SDS011;71575;49.908;18.356;2023-09-18T00:04:48;10.85;;;6.68;;
82022;SDS011;71575;49.908;18.356;2023-09-18T00:07:28;10.15;;;6.50;;
82022;SDS011;71575;49.908;18.356;2023-09-18T00:10:09;10.20;;;6.38;;
82022;SDS011;71575;49.908;18.356;2023-09-18T00:12:50;11.68;;;6.43;;
82022;SDS011;71575;49.908;18.356;2023-09-18T00:15:31;13.63;;;5.97;;
82022;SDS011;71575;49.908;18.356;2023-09-18T00:18:12;11.05;;;6.88;;
82022;SDS011;71575;49.908;18.356;2023-09-18T00:20:54;9.93;;;6.45;;
82022;SDS011;71575;49.908;18.356;2023-09-18T00:23:34;10.57;;;6.95;;
82022;SDS011;71575;49.908;18.356;2023-09-18T00:26:15;10.48;;;6.22;;
82022;SDS011;71575;49.908;18.356;2023-09-18T00:28:55;11.20;;;6.55;;
82022;SDS011;71575;49.908;18.356;2023-09-18T00:31:36;11.38;;;4.88;;
82022;SDS011;71575;49.908;18.356;2023-09-18T00:34:16;12.52;;;7.82;;
82022;SDS011;71575;49.908;18.356;2023-09-18T00:36:57;11.85;;;7.13;;
82022;SDS011;71575;49.908;18.356;2023-09-18T00:39:38;13.02;;;7.68;;
82022;SDS011;71575;49.908;18.356;2023-09-18T00:42:19;10.10;;;6.70;;
82022;SDS011;71575;49.908;18.356;2023-09-18T00:44:59;12.27;;;7.72;;
82022;SDS011;71575;49.908;18.356;2023-09-18T00:47:40;11.73;;;5.93;;
82022;SDS011;71575;49.908;18.356;2023-09-18T00:50:20;11.07;;;6.93;;
82022;SDS011;71575;49.908;18.356;2023-09-18T00:53:01;10.20;;;6.72;;
82022;SDS011;71575;49.908;18.356;2023-09-18T00:55:42;11.32;;;7.53;;
82022;SDS011;71575;49.908;18.356;2023-09-18T00:58:23;11.95;;;6.95;;
82022;SDS011;71575;49.908;18.356;2023-09-18T01:01:04;10.85;;;6.53;;
82022;SDS011;71575;49.908;18.356;2023-09-18T01:03:44;10.52;;;5.95;;
82022;SDS011;71575;49.908;18.356;2023-09-18T01:06:25;11.52;;;6.65;;
82022;SDS011;71575;49.908;18.356;2023-09-18T01:09:06;11.00;;;7.15;;
82022;SDS011;71575;49.908;18.356;2023-09-18T01:17:35;10.57;;;7.03;;
82022;SDS011;71575;49.908;18.356;2023-09-18T01:20:16;11.35;;;6.03;;
82022;SDS011;71575;49.908;18.356;2023-09-18T01:22:57;11.02;;;7.20;;
82022;SDS011;71575;49.908;18.356;2023-09-18T01:25:37;14.02;;;7.68;;
82022;SDS011;71575;49.908;18.356;2023-09-18T01:28:18;11.55;;;6.43;;
82022;SDS011;71575;49.908;18.356;2023-09-18T01:30:58;12.20;;;7.78;;
82022;SDS011;71575;49.908;18.356;2023-09-18T01:33:40;12.82;;;6.85;;
82022;SDS011;71575;49.908;18.356;2023-09-18T01:36:21;12.63;;;7.80;;
82022;SDS011;71575;49.908;18.356;2023-09-18T01:39:01;10.02;;;6.50;;
82022;SDS011;71575;49.908;18.356;2023-09-18T01:41:42;11.93;;;6.18;;
82022;SDS011;71575;49.908;18.356;2023-09-18T01:44:22;10.30;;;6.35;;
82022;SDS011;71575;49.908;18.356;2023-09-18T01:47:05;10.38;;;5.20;;
82022;SDS011;71575;49.908;18.356;2023-09-18T01:49:46;11.77;;;4.68;;
82022;SDS011;71575;49.908;18.356;2023-09-18T01:52:27;11.25;;;6.15;;
82022;SDS011;71575;49.908;18.356;2023-09-18T01:55:08;10.15;;;6.30;;
82022;SDS011;71575;49.908;18.356;2023-09-18T01:57:49;9.45;;;6.60;;
82022;SDS011;71575;49.908;18.356;2023-09-18T02:00:29;9.40;;;4.93;;
82022;SDS011;71575;49.908;18.356;2023-09-18T02:03:10;10.98;;;6.50;;
82022;SDS011;71575;49.908;18.356;2023-09-18T02:05:50;11.10;;;6.15;;
82022;SDS011;71575;49.908;18.356;2023-09-18T02:08:31;9.10;;;4.70;;
82022;SDS011;71575;49.908;18.356;2023-09-18T02:11:11;10.73;;;6.80;;
82022;SDS011;71575;49.908;18.356;2023-09-18T02:13:52;9.75;;;6.30;;
82022;SDS011;71575;49.908;18.356;2023-09-18T02:16:33;11.93;;;7.55;;
82022;SDS011;71575;49.908;18.356;2023-09-18T02:19:14;11.27;;;6.55;;
82022;SDS011;71575;49.908;18.356;2023-09-18T02:21:57;10.73;;;6.57;;
82022;SDS011;71575;49.908;18.356;2023-09-18T02:24:38;11.23;;;6.88;;
82022;SDS011;71575;49.908;18.356;2023-09-18T02:27:18;11.77;;;7.10;;
82022;SDS011;71575;49.908;18.356;2023-09-18T02:29:59;11.25;;;7.22;;
82022;SDS011;71575;49.908;18.356;2023-09-18T02:32:39;11.48;;;6.72;;
82022;SDS011;71575;49.908;18.356;2023-09-18T02:35:20;10.88;;;7.18;;
82022;SDS011;71575;49.908;18.356;2023-09-18T02:38:00;11.85;;;7.32;;
82022;SDS011;71575;49.908;18.356;2023-09-18T02:40:41;12.10;;;6.90;;
82022;SDS011;71575;49.908;18.356;2023-09-18T02:43:21;11.85;;;7.68;;
82022;SDS011;71575;49.908;18.356;2023-09-18T02:46:02;10.75;;;7.60;;
82022;SDS011;71575;49.908;18.356;2023-09-18T02:48:42;10.93;;;6.93;;
82022;SDS011;71575;49.908;18.356;2023-09-18T02:51:25;13.10;;;7.18;;
82022;SDS011;71575;49.908;18.356;2023-09-18T02:54:06;12.68;;;7.88;;
82022;SDS011;71575;49.908;18.356;2023-09-18T02:56:46;14.00;;;7.63;;
82022;SDS011;71575;49.908;18.356;2023-09-18T02:59:27;12.07;;;7.53;;
82022;SDS011;71575;49.908;18.356;2023-09-18T03:02:07;11.68;;;7.97;;
82022;SDS011;71575;49.908;18.356;2023-09-18T03:04:48;13.85;;;8.55;;
82022;SDS011;71575;49.908;18.356;2023-09-18T03:07:28;13.73;;;8.60;;
82022;SDS011;71575;49.908;18.356;2023-09-18T03:10:09;15.25;;;8.88;;
82022;SDS011;71575;49.908;18.356;2023-09-18T03:12:50;13.27;;;8.32;;
82022;SDS011;71575;49.908;18.356;2023-09-18T03:15:30;20.20;;;13.00;;
82022;SDS011;71575;49.908;18.356;2023-09-18T03:18:11;17.58;;;10.73;;
82022;SDS011;71575;49.908;18.356;2023-09-18T03:20:51;14.65;;;8.82;;
82022;SDS011;71575;49.908;18.356;2023-09-18T03:23:33;13.95;;;8.73;;
82022;SDS011;71575;49.908;18.356;2023-09-18T03:26:14;14.38;;;8.90;;
82022;SDS011;71575;49.908;18.356;2023-09-18T03:28:55;15.45;;;8.60;;
82022;SDS011;71575;49.908;18.356;2023-09-18T03:31:36;14.95;;;9.00;;
82022;SDS011;71575;49.908;18.356;2023-09-18T03:34:17;13.60;;;6.72;;
82022;SDS011;71575;49.908;18.356;2023-09-18T03:36:57;13.52;;;8.25;;
82022;SDS011;71575;49.908;18.356;2023-09-18T03:39:38;16.83;;;9.43;;
82022;SDS011;71575;49.908;18.356;2023-09-18T03:42:18;16.83;;;10.23;;
82022;SDS011;71575;49.908;18.356;2023-09-18T03:44:59;16.63;;;9.82;;
82022;SDS011;71575;49.908;18.356;2023-09-18T03:47:40;15.30;;;9.38;;
82022;SDS011;71575;49.908;18.356;2023-09-18T03:50:21;14.68;;;8.75;;
82022;SDS011;71575;49.908;18.356;2023-09-18T03:53:02;14.02;;;8.75;;
82022;SDS011;71575;49.908;18.356;2023-09-18T03:55:43;15.63;;;9.48;;
82022;SDS011;71575;49.908;18.356;2023-09-18T03:58:23;16.38;;;9.13;;
82022;SDS011;71575;49.908;18.356;2023-09-18T04:01:04;15.13;;;9.23;;
82022;SDS011;71575;49.908;18.356;2023-09-18T04:03:44;14.50;;;9.75;;
82022;SDS011;71575;49.908;18.356;2023-09-18T04:06:25;14.90;;;9.70;;
82022;SDS011;71575;49.908;18.356;2023-09-18T04:09:05;15.93;;;9.70;;
82022;SDS011;71575;49.908;18.356;2023-09-18T04:11:46;14.95;;;10.40;;
82022;SDS011;71575;49.908;18.356;2023-09-18T04:14:26;16.83;;;10.25;;
82022;SDS011;71575;49.908;18.356;2023-09-18T04:17:07;13.93;;;7.05;;
82022;SDS011;71575;49.908;18.356;2023-09-18T04:19:47;14.07;;;8.93;;
82022;SDS011;71575;49.908;18.356;2023-09-18T04:22:28;14.48;;;9.80;;
82022;SDS011;71575;49.908;18.356;2023-09-18T04:25:08;16.85;;;9.75;;
82022;SDS011;71575;49.908;18.356;2023-09-18T04:27:49;16.50;;;9.73;;
82022;SDS011;71575;49.908;18.356;2023-09-18T04:30:29;18.35;;;11.75;;
82022;SDS011;71575;49.908;18.356;2023-09-18T04:33:10;14.93;;;10.27;;
82022;SDS011;71575;49.908;18.356;2023-09-18T04:35:51;16.02;;;11.30;;
82022;SDS011;71575;49.908;18.356;2023-09-18T04:38:31;18.50;;;10.93;;
82022;SDS011;71575;49.908;18.356;2023-09-18T04:41:13;17.48;;;10.98;;
82022;SDS011;71575;49.908;18.356;2023-09-18T04:43:54;14.60;;;10.27;;
82022;SDS011;71575;49.908;18.356;2023-09-18T04:46:35;16.60;;;9.90;;
82022;SDS011;71575;49.908;18.356;2023-09-18T04:49:15;18.70;;;10.65;;
82022;SDS011;71575;49.908;18.356;2023-09-18T04:51:56;19.70;;;10.75;;
82022;SDS011;71575;49.908;18.356;2023-09-18T04:54:37;17.30;;;10.52;;
82022;SDS011;71575;49.908;18.356;2023-09-18T04:57:17;17.55;;;10.73;;
82022;SDS011;71575;49.908;18.356;2023-09-18T04:59:58;20.88;;;11.93;;
82022;SDS011;71575;49.908;18.356;2023-09-18T05:02:38;17.05;;;11.15;;
82022;SDS011;71575;49.908;18.356;2023-09-18T05:05:19;19.85;;;10.63;;
82022;SDS011;71575;49.908;18.356;2023-09-18T05:08:04;19.42;;;10.85;;
82022;SDS011;71575;49.908;18.356;2023-09-18T05:10:46;16.63;;;10.27;;
82022;SDS011;71575;49.908;18.356;2023-09-18T05:13:26;17.13;;;9.77;;
82022;SDS011;71575;49.908;18.356;2023-09-18T05:16:07;17.17;;;10.07;;
82022;SDS011;71575;49.908;18.356;2023-09-18T05:18:47;16.23;;;10.23;;
82022;SDS011;71575;49.908;18.356;2023-09-18T05:21:28;15.70;;;10.00;;
82022;SDS011;71575;49.908;18.356;2023-09-18T05:24:08;16.67;;;10.45;;
82022;SDS011;71575;49.908;18.356;2023-09-18T05:26:49;20.92;;;10.27;;
82022;SDS011;71575;49.908;18.356;2023-09-18T05:29:29;16.80;;;10.80;;
82022;SDS011;71575;49.908;18.356;2023-09-18T05:32:10;19.52;;;10.20;;
82022;SDS011;71575;49.908;18.356;2023-09-18T05:34:50;23.30;;;10.57;;
82022;SDS011;71575;49.908;18.356;2023-09-18T05:37:31;16.55;;;9.73;;
82022;SDS011;71575;49.908;18.356;2023-09-18T05:40:13;21.65;;;10.55;;
82022;SDS011;71575;49.908;18.356;2023-09-18T05:42:54;18.15;;;10.57;;
82022;SDS011;71575;49.908;18.356;2023-09-18T05:45:35;19.45;;;11.18;;
82022;SDS011;71575;49.908;18.356;2023-09-18T05:48:16;18.08;;;9.93;;
82022;SDS011;71575;49.908;18.356;2023-09-18T05:50:56;17.70;;;9.90;;
82022;SDS011;71575;49.908;18.356;2023-09-18T05:53:37;24.55;;;11.18;;
82022;SDS011;71575;49.908;18.356;2023-09-18T05:56:17;15.02;;;10.55;;
82022;SDS011;71575;49.908;18.356;2023-09-18T05:58:58;16.17;;;10.30;;
82022;SDS011;71575;49.908;18.356;2023-09-18T06:01:38;17.25;;;10.30;;
82022;SDS011;71575;49.908;18.356;2023-09-18T06:04:19;16.10;;;10.88;;
82022;SDS011;71575;49.908;18.356;2023-09-18T06:06:59;21.23;;;11.00;;
82022;SDS011;71575;49.908;18.356;2023-09-18T06:09:40;15.07;;;10.27;;
82022;SDS011;71575;49.908;18.356;2023-09-18T06:12:21;16.10;;;11.45;;
82022;SDS011;71575;49.908;18.356;2023-09-18T06:15:01;19.50;;;11.07;;
82022;SDS011;71575;49.908;18.356;2023-09-18T06:17:43;18.95;;;10.27;;
82022;SDS011;71575;49.908;18.356;2023-09-18T06:20:24;16.52;;;11.60;;
82022;SDS011;71575;49.908;18.356;2023-09-18T06:23:04;18.42;;;11.15;;
82022;SDS011;71575;49.908;18.356;2023-09-18T06:25:45;16.83;;;10.98;;
82022;SDS011;71575;49.908;18.356;2023-09-18T06:28:25;20.33;;;12.07;;
82022;SDS011;71575;49.908;18.356;2023-09-18T06:31:06;19.60;;;12.55;;
82022;SDS011;71575;49.908;18.356;2023-09-18T06:33:46;18.20;;;12.70;;
82022;SDS011;71575;49.908;18.356;2023-09-18T06:36:27;18.80;;;11.15;;
82022;SDS011;71575;49.908;18.356;2023-09-18T06:39:07;18.05;;;11.93;;
82022;SDS011;71575;49.908;18.356;2023-09-18T06:41:48;17.45;;;10.52;;
82022;SDS011;71575;49.908;18.356;2023-09-18T06:44:28;18.02;;;12.80;;
82022;SDS011;71575;49.908;18.356;2023-09-18T06:47:09;16.52;;;10.27;;
82022;SDS011;71575;49.908;18.356;2023-09-18T06:49:49;17.40;;;11.25;;
82022;SDS011;71575;49.908;18.356;2023-09-18T06:52:30;22.05;;;12.02;;
82022;SDS011;71575;49.908;18.356;2023-09-18T06:55:11;17.27;;;11.20;;
82022;SDS011;71575;49.908;18.356;2023-09-18T06:57:51;18.60;;;13.07;;
82022;SDS011;71575;49.908;18.356;2023-09-18T07:00:32;21.92;;;12.60;;
82022;SDS011;71575;49.908;18.356;2023-09-18T07:03:13;19.50;;;13.63;;
82022;SDS011;71575;49.908;18.356;2023-09-18T07:05:53;20.85;;;15.43;;
82022;SDS011;71575;49.908;18.356;2023-09-18T07:08:34;18.92;;;9.82;;
82022;SDS011;71575;49.908;18.356;2023-09-18T07:11:14;21.33;;;12.15;;
82022;SDS011;71575;49.908;18.356;2023-09-18T07:13:55;18.80;;;10.73;;
82022;SDS011;71575;49.908;18.356;2023-09-18T07:16:36;20.02;;;13.38;;
82022;SDS011;71575;49.908;18.356;2023-09-18T07:19:16;22.65;;;14.20;;
82022;SDS011;71575;49.908;18.356;2023-09-18T07:21:57;22.80;;;13.52;;
82022;SDS011;71575;49.908;18.356;2023-09-18T07:24:38;20.13;;;11.18;;
82022;SDS011;71575;49.908;18.356;2023-09-18T07:27:18;22.25;;;12.32;;
82022;SDS011;71575;49.908;18.356;2023-09-18T07:29:59;19.95;;;13.63;;
82022;SDS011;71575;49.908;18.356;2023-09-18T07:32:40;19.67;;;13.50;;
82022;SDS011;71575;49.908;18.356;2023-09-18T07:35:20;20.02;;;15.23;;
82022;SDS011;71575;49.908;18.356;2023-09-18T07:38:01;19.42;;;13.77;;
82022;SDS011;71575;49.908;18.356;2023-09-18T07:40:42;20.30;;;15.65;;
82022;SDS011;71575;49.908;18.356;2023-09-18T07:43:23;18.95;;;13.82;;
82022;SDS011;71575;49.908;18.356;2023-09-18T07:46:04;20.45;;;12.85;;
82022;SDS011;71575;49.908;18.356;2023-09-18T07:48:45;19.75;;;14.30;;
82022;SDS011;71575;49.908;18.356;2023-09-18T07:51:25;18.60;;;14.20;;
82022;SDS011;71575;49.908;18.356;2023-09-18T07:54:06;19.02;;;13.57;;
82022;SDS011;71575;49.908;18.356;2023-09-18T07:56:47;17.55;;;14.55;;
82022;SDS011;71575;49.908;18.356;2023-09-18T07:59:28;17.02;;;14.35;;
82022;SDS011;71575;49.908;18.356;2023-09-18T08:02:08;20.70;;;13.40;;
82022;SDS011;71575;49.908;18.356;2023-09-18T08:04:49;15.88;;;11.35;;
82022;SDS011;71575;49.908;18.356;2023-09-18T08:07:29;18.65;;;13.15;;
82022;SDS011;71575;49.908;18.356;2023-09-18T08:10:10;17.80;;;11.80;;
82022;SDS011;71575;49.908;18.356;2023-09-18T08:12:51;16.02;;;11.52;;
82022;SDS011;71575;49.908;18.356;2023-09-18T08:15:31;17.13;;;12.65;;
82022;SDS011;71575;49.908;18.356;2023-09-18T08:18:12;15.35;;;11.13;;
82022;SDS011;71575;49.908;18.356;2023-09-18T08:20:53;17.40;;;12.57;;
82022;SDS011;71575;49.908;18.356;2023-09-18T08:23:33;17.88;;;13.75;;
82022;SDS011;71575;49.908;18.356;2023-09-18T08:26:14;17.88;;;13.10;;
82022;SDS011;71575;49.908;18.356;2023-09-18T08:28:54;16.67;;;14.05;;
82022;SDS011;71575;49.908;18.356;2023-09-18T08:31:35;18.42;;;12.43;;
82022;SDS011;71575;49.908;18.356;2023-09-18T08:34:15;15.88;;;13.05;;
82022;SDS011;71575;49.908;18.356;2023-09-18T08:36:56;18.98;;;14.55;;
82022;SDS011;71575;49.908;18.356;2023-09-18T08:39:36;22.38;;;14.00;;
82022;SDS011;71575;49.908;18.356;2023-09-18T08:42:17;17.33;;;12.77;;
82022;SDS011;71575;49.908;18.356;2023-09-18T08:44:58;21.23;;;13.45;;
82022;SDS011;71575;49.908;18.356;2023-09-18T08:47:39;17.70;;;13.35;;
82022;SDS011;71575;49.908;18.356;2023-09-18T08:50:21;17.00;;;14.43;;
82022;SDS011;71575;49.908;18.356;2023-09-18T08:53:01;16.65;;;11.00;;
82022;SDS011;71575;49.908;18.356;2023-09-18T08:55:42;16.10;;;12.25;;
82022;SDS011;71575;49.908;18.356;2023-09-18T08:58:23;17.08;;;13.32;;
82022;SDS011;71575;49.908;18.356;2023-09-18T09:01:04;16.38;;;10.93;;
82022;SDS011;71575;49.908;18.356;2023-09-18T09:03:44;16.33;;;11.57;;
82022;SDS011;71575;49.908;18.356;2023-09-18T09:06:25;16.02;;;13.13;;
82022;SDS011;71575;49.908;18.356;2023-09-18T09:09:05;17.58;;;12.55;;
82022;SDS011;71575;49.908;18.356;2023-09-18T09:11:49;16.30;;;10.80;;
82022;SDS011;71575;49.908;18.356;2023-09-18T09:14:30;15.98;;;13.38;;
82022;SDS011;71575;49.908;18.356;2023-09-18T09:17:10;18.77;;;13.80;;
82022;SDS011;71575;49.908;18.356;2023-09-18T09:20:07;17.23;;;13.63;;
82022;SDS011;71575;49.908;18.356;2023-09-18T09:22:52;17.38;;;14.00;;
82022;SDS011;71575;49.908;18.356;2023-09-18T09:25:33;15.52;;;13.07;;
82022;SDS011;71575;49.908;18.356;2023-09-18T09:28:14;17.52;;;13.80;;
82022;SDS011;71575;49.908;18.356;2023-09-18T09:30:55;16.75;;;14.40;;
82022;SDS011;71575;49.908;18.356;2023-09-18T09:33:44;18.80;;;13.75;;
82022;SDS011;71575;49.908;18.356;2023-09-18T09:36:30;14.30;;;10.10;;
82022;SDS011;71575;49.908;18.356;2023-09-18T09:39:10;15.75;;;13.45;;
82022;SDS011;71575;49.908;18.356;2023-09-18T09:41:51;16.77;;;13.82;;
82022;SDS011;71575;49.908;18.356;2023-09-18T09:44:32;18.50;;;13.45;;
82022;SDS011;71575;49.908;18.356;2023-09-18T09:47:13;14.57;;;10.07;;
82022;SDS011;71575;49.908;18.356;2023-09-18T09:49:54;15.02;;;10.43;;
82022;SDS011;71575;49.908;18.356;2023-09-18T09:52:34;15.07;;;12.27;;
82022;SDS011;71575;49.908;18.356;2023-09-18T09:58:06;13.80;;;10.02;;
82022;SDS011;71575;49.908;18.356;2023-09-18T10:00:49;18.27;;;12.50;;
82022;SDS011;71575;49.908;18.356;2023-09-18T10:03:32;13.32;;;11.45;;
82022;SDS011;71575;49.908;18.356;2023-09-18T10:06:14;15.73;;;12.35;;
82022;SDS011;71575;49.908;18.356;2023-09-18T10:08:55;16.95;;;13.50;;
82022;SDS011;71575;49.908;18.356;2023-09-18T10:11:37;15.30;;;11.73;;
82022;SDS011;71575;49.908;18.356;2023-09-18T10:14:25;14.32;;;10.45;;
82022;SDS011;71575;49.908;18.356;2023-09-18T10:17:16;14.23;;;10.52;;
82022;SDS011;71575;49.908;18.356;2023-09-18T10:20:16;15.52;;;12.05;;
82022;SDS011;71575;49.908;18.356;2023-09-18T10:22:58;14.10;;;10.85;;
82022;SDS011;71575;49.908;18.356;2023-09-18T10:25:41;14.45;;;9.60;;
82022;SDS011;71575;49.908;18.356;2023-09-18T10:28:23;15.57;;;9.73;;
82022;SDS011;71575;49.908;18.356;2023-09-18T10:31:03;13.60;;;10.25;;
82022;SDS011;71575;49.908;18.356;2023-09-18T10:33:44;14.82;;;10.88;;
82022;SDS011;71575;49.908;18.356;2023-09-18T10:36:25;14.25;;;10.38;;
82022;SDS011;71575;49.908;18.356;2023-09-18T10:39:06;13.25;;;10.88;;
82022;SDS011;71575;49.908;18.356;2023-09-18T10:41:50;14.45;;;10.68;;
82022;SDS011;71575;49.908;18.356;2023-09-18T10:44:32;14.93;;;8.20;;
82022;SDS011;71575;49.908;18.356;2023-09-18T10:47:12;17.38;;;10.20;;
82022;SDS011;71575;49.908;18.356;2023-09-18T10:49:53;14.00;;;10.63;;
82022;SDS011;71575;49.908;18.356;2023-09-18T10:52:34;14.30;;;11.25;;
82022;SDS011;71575;49.908;18.356;2023-09-18T10:55:16;14.68;;;10.73;;
82022;SDS011;71575;49.908;18.356;2023-09-18T10:57:58;12.40;;;10.00;;
82022;SDS011;71575;49.908;18.356;2023-09-18T11:00:39;14.65;;;10.75;;
82022;SDS011;71575;49.908;18.356;2023-09-18T11:03:22;14.60;;;12.10;;
82022;SDS011;71575;49.908;18.356;2023-09-18T11:08:45;14.35;;;11.05;;
82022;SDS011;71575;49.908;18.356;2023-09-18T11:11:27;15.63;;;10.65;;
82022;SDS011;71575;49.908;18.356;2023-09-18T11:14:10;13.52;;;11.05;;
82022;SDS011;71575;49.908;18.356;2023-09-18T11:16:51;11.43;;;9.00;;
82022;SDS011;71575;49.908;18.356;2023-09-18T11:19:32;12.20;;;9.38;;
82022;SDS011;71575;49.908;18.356;2023-09-18T11:22:13;13.82;;;7.72;;
82022;SDS011;71575;49.908;18.356;2023-09-18T11:24:53;12.68;;;10.18;;
82022;SDS011;71575;49.908;18.356;2023-09-18T11:27:43;12.80;;;10.18;;
82022;SDS011;71575;49.908;18.356;2023-09-18T11:30:36;13.23;;;8.07;;
82022;SDS011;71575;49.908;18.356;2023-09-18T11:33:29;11.98;;;8.00;;
82022;SDS011;71575;49.908;18.356;2023-09-18T11:39:03;12.98;;;10.75;;
82022;SDS011;71575;49.908;18.356;2023-09-18T11:41:43;13.38;;;8.25;;
82022;SDS011;71575;49.908;18.356;2023-09-18T11:47:09;15.40;;;10.80;;
82022;SDS011;71575;49.908;18.356;2023-09-18T11:49:54;13.45;;;10.95;;
82022;SDS011;71575;49.908;18.356;2023-09-18T11:52:36;15.23;;;10.65;;
82022;SDS011;71575;49.908;18.356;2023-09-18T11:55:17;12.50;;;10.65;;
82022;SDS011;71575;49.908;18.356;2023-09-18T11:57:58;12.05;;;9.93;;
82022;SDS011;71575;49.908;18.356;2023-09-18T12:00:39;13.32;;;10.40;;
82022;SDS011;71575;49.908;18.356;2023-09-18T12:03:23;11.88;;;9.30;;
82022;SDS011;71575;49.908;18.356;2023-09-18T12:06:04;12.63;;;9.77;;
82022;SDS011;71575;49.908;18.356;2023-09-18T12:08:45;11.73;;;9.65;;
82022;SDS011;71575;49.908;18.356;2023-09-18T12:11:26;11.20;;;9.35;;
82022;SDS011;71575;49.908;18.356;2023-09-18T12:14:06;12.48;;;9.52;;
82022;SDS011;71575;49.908;18.356;2023-09-18T12:16:47;13.80;;;9.48;;
82022;SDS011;71575;49.908;18.356;2023-09-18T12:19:27;11.02;;;7.25;;
82022;SDS011;71575;49.908;18.356;2023-09-18T12:22:08;10.80;;;8.75;;
82022;SDS011;71575;49.908;18.356;2023-09-18T12:24:48;13.05;;;9.85;;
82022;SDS011;71575;49.908;18.356;2023-09-18T12:27:29;10.80;;;9.25;;
82022;SDS011;71575;49.908;18.356;2023-09-18T12:30:10;11.52;;;10.32;;
82022;SDS011;71575;49.908;18.356;2023-09-18T12:32:51;11.50;;;9.38;;
82022;SDS011;71575;49.908;18.356;2023-09-18T12:35:32;10.95;;;9.20;;
82022;SDS011;71575;49.908;18.356;2023-09-18T12:38:17;12.02;;;10.25;;
82022;SDS011;71575;49.908;18.356;2023-09-18T12:41:01;11.60;;;9.40;;
82022;SDS011;71575;49.908;18.356;2023-09-18T12:43:42;12.38;;;9.40;;
82022;SDS011;71575;49.908;18.356;2023-09-18T12:46:23;12.63;;;8.90;;
82022;SDS011;71575;49.908;18.356;2023-09-18T12:49:16;11.50;;;7.53;;
82022;SDS011;71575;49.908;18.356;2023-09-18T12:51:58;12.02;;;10.20;;
82022;SDS011;71575;49.908;18.356;2023-09-18T12:54:42;10.13;;;8.65;;
82022;SDS011;71575;49.908;18.356;2023-09-18T12:57:24;11.73;;;10.48;;
82022;SDS011;71575;49.908;18.356;2023-09-18T13:00:09;10.25;;;9.10;;
82022;SDS011;71575;49.908;18.356;2023-09-18T13:02:50;10.63;;;8.73;;
82022;SDS011;71575;49.908;18.356;2023-09-18T13:05:31;12.35;;;10.13;;
82022;SDS011;71575;49.908;18.356;2023-09-18T13:08:11;12.45;;;9.55;;
82022;SDS011;71575;49.908;18.356;2023-09-18T13:10:52;11.77;;;8.65;;
82022;SDS011;71575;49.908;18.356;2023-09-18T13:13:33;13.82;;;9.32;;
82022;SDS011;71575;49.908;18.356;2023-09-18T13:16:28;13.38;;;9.18;;
82022;SDS011;71575;49.908;18.356;2023-09-18T13:19:24;11.43;;;9.68;;
82022;SDS011;71575;49.908;18.356;2023-09-18T13:22:05;10.68;;;8.70;;
82022;SDS011;71575;49.908;18.356;2023-09-18T13:24:45;11.98;;;9.10;;
82022;SDS011;71575;49.908;18.356;2023-09-18T13:27:40;13.65;;;8.82;;
82022;SDS011;71575;49.908;18.356;2023-09-18T13:30:21;10.27;;;8.13;;
82022;SDS011;71575;49.908;18.356;2023-09-18T13:33:03;11.35;;;8.85;;
82022;SDS011;71575;49.908;18.356;2023-09-18T13:39:03;11.32;;;9.60;;
82022;SDS011;71575;49.908;18.356;2023-09-18T13:41:59;10.63;;;8.70;;
82022;SDS011;71575;49.908;18.356;2023-09-18T13:44:54;10.20;;;8.27;;
82022;SDS011;71575;49.908;18.356;2023-09-18T13:47:49;10.75;;;8.43;;
82022;SDS011;71575;49.908;18.356;2023-09-18T13:50:48;11.55;;;8.57;;
82022;SDS011;71575;49.908;18.356;2023-09-18T13:53:43;9.82;;;8.23;;
82022;SDS011;71575;49.908;18.356;2023-09-18T13:56:38;10.82;;;9.10;;
82022;SDS011;71575;49.908;18.356;2023-09-18T13:59:34;9.82;;;7.80;;
82022;SDS011;71575;49.908;18.356;2023-09-18T14:02:29;12.38;;;11.13;;
82022;SDS011;71575;49.908;18.356;2023-09-18T14:05:24;12.50;;;8.52;;
82022;SDS011;71575;49.908;18.356;2023-09-18T14:08:20;9.43;;;7.78;;
82022;SDS011;71575;49.908;18.356;2023-09-18T14:11:15;11.18;;;7.93;;
82022;SDS011;71575;49.908;18.356;2023-09-18T14:14:11;10.20;;;7.63;;
82022;SDS011;71575;49.908;18.356;2023-09-18T14:17:06;10.65;;;8.25;;
82022;SDS011;71575;49.908;18.356;2023-09-18T14:19:47;9.48;;;6.43;;
82022;SDS011;71575;49.908;18.356;2023-09-18T14:22:27;11.50;;;9.13;;
82022;SDS011;71575;49.908;18.356;2023-09-18T14:25:23;9.48;;;7.47;;
82022;SDS011;71575;49.908;18.356;2023-09-18T14:28:19;10.40;;;9.07;;
82022;SDS011;71575;49.908;18.356;2023-09-18T14:31:14;9.35;;;8.35;;
82022;SDS011;71575;49.908;18.356;2023-09-18T14:34:09;12.10;;;10.20;;
82022;SDS011;71575;49.908;18.356;2023-09-18T14:37:05;10.85;;;7.95;;
82022;SDS011;71575;49.908;18.356;2023-09-18T14:39:45;9.80;;;7.93;;
82022;SDS011;71575;49.908;18.356;2023-09-18T14:42:26;10.13;;;8.13;;
82022;SDS011;71575;49.908;18.356;2023-09-18T14:45:21;11.65;;;8.45;;
82022;SDS011;71575;49.908;18.356;2023-09-18T14:48:16;9.50;;;7.25;;
82022;SDS011;71575;49.908;18.356;2023-09-18T14:51:12;10.65;;;7.63;;
82022;SDS011;71575;49.908;18.356;2023-09-18T14:54:07;12.55;;;8.68;;
82022;SDS011;71575;49.908;18.356;2023-09-18T14:57:03;9.70;;;8.25;;
82022;SDS011;71575;49.908;18.356;2023-09-18T14:59:46;11.38;;;8.45;;
82022;SDS011;71575;49.908;18.356;2023-09-18T15:02:27;11.00;;;8.27;;
82022;SDS011;71575;49.908;18.356;2023-09-18T15:05:22;11.02;;;8.82;;
82022;SDS011;71575;49.908;18.356;2023-09-18T15:08:17;11.55;;;8.48;;
82022;SDS011;71575;49.908;18.356;2023-09-18T15:11:13;12.15;;;8.27;;
82022;SDS011;71575;49.908;18.356;2023-09-18T15:13:54;10.45;;;8.13;;
82022;SDS011;71575;49.908;18.356;2023-09-18T15:16:34;12.52;;;9.00;;
82022;SDS011;71575;49.908;18.356;2023-09-18T15:19:30;10.02;;;7.78;;
82022;SDS011;71575;49.908;18.356;2023-09-18T15:22:25;11.38;;;8.18;;
82022;SDS011;71575;49.908;18.356;2023-09-18T15:25:08;9.63;;;6.15;;
82022;SDS011;71575;49.908;18.356;2023-09-18T15:27:50;10.43;;;8.65;;
82022;SDS011;71575;49.908;18.356;2023-09-18T15:30:46;12.38;;;9.43;;
82022;SDS011;71575;49.908;18.356;2023-09-18T15:33:42;12.23;;;10.05;;
82022;SDS011;71575;49.908;18.356;2023-09-18T15:36:37;11.23;;;9.65;;
82022;SDS011;71575;49.908;18.356;2023-09-18T15:39:25;12.75;;;10.18;;
82022;SDS011;71575;49.908;18.356;2023-09-18T15:42:06;12.48;;;10.27;;
82022;SDS011;71575;49.908;18.356;2023-09-18T15:44:49;13.93;;;9.50;;
82022;SDS011;71575;49.908;18.356;2023-09-18T15:47:29;11.35;;;9.70;;
82022;SDS011;71575;49.908;18.356;2023-09-18T15:50:25;11.80;;;9.20;;
82022;SDS011;71575;49.908;18.356;2023-09-18T15:53:21;12.82;;;9.40;;
82022;SDS011;71575;49.908;18.356;2023-09-18T15:56:01;11.25;;;8.55;;
82022;SDS011;71575;49.908;18.356;2023-09-18T15:58:42;11.27;;;8.68;;
82022;SDS011;71575;49.908;18.356;2023-09-18T16:01:37;10.40;;;8.73;;
82022;SDS011;71575;49.908;18.356;2023-09-18T16:04:33;15.00;;;8.43;;
82022;SDS011;71575;49.908;18.356;2023-09-18T16:07:28;14.20;;;10.20;;